KHOT/HOT METAR and TAF weather

Enter ICAO airport designator
Station Type Date Time Source
KHOT METAR 2019/08/25 17:53 UTC NOAA

KHOT 251753Z AUTO VRB04KT 10SM SCT022 BKN031 BKN036 29/24 A2991 RMK AO2 SLP122 T02940239 10294 20244 58013


Station Type Date Time Source
KHOT Decoded METAR 2019/08/25 17:53 UTC NOAA

Station name not available
Aug 25, 2019 - 01:53 PM EDT / 2019.08.25 1753 UTC
Wind: Variable at 5 MPH (4 KT):0
Visibility: 10 mile(s):0
Sky conditions: mostly cloudy
Temperature: 84.9 F (29.4 C)
Dew Point: 75.0 F (23.9 C)
Relative Humidity: 72%
Pressure (altimeter): 29.91 in. Hg (1012 hPa)
Pressure tendency: 0.04 inches (1.3 hPa) lower than three hours ago
ob: KHOT 251753Z AUTO VRB04KT 10SM SCT022 BKN031 BKN036 29/24 A2991 RMK AO2 SLP122 T02940239 10294 20244 58013
cycle: 18

Station Type Date Time Source
KHOT TAF 2019/08/25 18:45 UTC NOAA

TAF KHOT 251740Z 2518/2618 15008KT P6SM VCTS SCT025 BKN050CB
TEMPO 2519/2523 5SM -TSRA BR BKN025CB
FM260100 10004KT P6SM SCT050 BKN100
FM261000 VRB03KT 6SM BR SCT007 OVC015
TEMPO 2610/2614 2SM BR OVC005
FM261500 VRB04KT P6SM BKN015 OVC030

Example: see airport list